Time;durP1;ratioP1;P1;durP2;ratioP2;P2;SDS_P1;SDS_P2;PMS_P1;PMS_P2;Temp;Humidity;BMP_temperature;BMP_pressure;BME280_temperature;BME280_humidity;BME280_pressure;Samples;Min_cycle;Max_cycle;Signal;HPM_P1;HPM_P2
2022/01/12 00:01:20;;;;;;;53.83;24.48;;;2.90;99.90;;;;;;5015238;28;20454;-78
2022/01/12 00:03:46;;;;;;;50.42;26.38;;;2.90;99.90;;;;;;5015134;28;20099;-75
2022/01/12 00:06:13;;;;;;;54.65;27.00;;;2.90;99.90;;;;;;4997462;28;20038;-78
2022/01/12 00:08:39;;;;;;;51.13;26.48;;;2.90;99.90;;;;;;5015220;28;20045;-80
2022/01/12 00:11:05;;;;;;;53.65;27.45;;;2.90;99.90;;;;;;5014701;28;20048;-72
2022/01/12 00:13:32;;;;;;;53.10;25.83;;;2.90;99.90;;;;;;5014726;28;20058;-71
2022/01/12 00:16:01;;;;;;;66.60;27.63;;;2.90;99.90;;;;;;5014977;28;20049;-71
2022/01/12 00:18:27;;;;;;;53.22;25.38;;;2.90;99.90;;;;;;5014890;28;20045;-71
2022/01/12 00:20:54;;;;;;;64.15;28.30;;;2.90;99.90;;;;;;5014554;28;20046;-71
2022/01/12 00:23:20;;;;;;;68.30;28.40;;;2.90;99.90;;;;;;5014805;28;20046;-71
2022/01/12 00:25:59;;;;;;;63.30;28.45;;;2.90;99.90;;;;;;4997319;28;20401;-71
2022/01/12 00:33:56;;;;;;;63.38;27.80;;;2.90;99.90;;;;;;5014360;28;20559;-72
2022/01/12 00:36:21;;;;;;;64.03;28.67;;;2.90;99.90;;;;;;4996368;28;20061;-71
2022/01/12 00:38:47;;;;;;;75.40;30.80;;;2.90;99.90;;;;;;4996624;28;20060;-72
2022/01/12 00:41:17;;;;;;;73.30;30.45;;;3.00;99.90;;;;;;5014476;28;20054;-72
2022/01/12 00:43:45;;;;;;;62.92;27.40;;;3.00;99.90;;;;;;5013716;28;20069;-71
2022/01/12 00:46:14;;;;;;;74.20;29.40;;;3.00;99.90;;;;;;5014010;28;20054;-72
2022/01/12 00:48:40;;;;;;;66.72;28.63;;;3.00;99.90;;;;;;5014016;28;20097;-72
2022/01/12 00:51:08;;;;;;;70.90;30.98;;;3.00;99.90;;;;;;5014207;28;20057;-72
2022/01/12 00:53:34;;;;;;;78.32;31.95;;;3.00;99.90;;;;;;5013626;28;20045;-72
2022/01/12 00:55:59;;;;;;;68.97;28.73;;;3.00;99.90;;;;;;5014104;28;20045;-72
2022/01/12 00:58:25;;;;;;;63.28;29.27;;;3.10;99.90;;;;;;5013770;28;20107;-72
2022/01/12 01:00:51;;;;;;;72.40;31.27;;;3.10;99.90;;;;;;5013782;28;20129;-71
2022/01/12 01:03:16;;;;;;;73.10;30.55;;;3.00;99.90;;;;;;5013705;28;20107;-72
2022/01/12 01:05:42;;;;;;;70.25;29.65;;;3.10;99.90;;;;;;4996463;28;20048;-72
2022/01/12 01:08:08;;;;;;;88.53;31.10;;;3.10;99.90;;;;;;4996435;28;20042;-72
2022/01/12 01:13:03;;;;;;;79.97;29.92;;;3.10;99.90;;;;;;5013648;28;20056;-72
2022/01/12 01:26:29;;;;;;;80.32;29.38;;;3.10;99.90;;;;;;4995548;28;20061;-71
2022/01/12 01:28:54;;;;;;;79.72;31.40;;;3.10;99.90;;;;;;5013082;28;20049;-72
2022/01/12 01:31:27;;;;;;;85.88;31.90;;;3.10;99.90;;;;;;5013003;28;20399;-72
2022/01/12 01:33:52;;;;;;;91.47;32.22;;;3.10;99.90;;;;;;5013374;28;20084;-71
2022/01/12 01:36:18;;;;;;;79.90;29.15;;;3.10;99.90;;;;;;5013194;28;20124;-71
2022/01/12 01:38:44;;;;;;;81.97;30.25;;;3.10;99.90;;;;;;5013084;28;20418;-71
2022/01/12 01:41:10;;;;;;;92.32;32.03;;;3.10;99.90;;;;;;5011508;28;20125;-72
2022/01/12 01:54:15;;;;;;;89.90;31.80;;;3.20;99.90;;;;;;5012898;28;20046;-71
2022/01/12 01:56:41;;;;;;;122.97;36.13;;;3.10;99.90;;;;;;5012449;28;20053;-73
2022/01/12 01:59:07;;;;;;;140.10;37.20;;;3.20;99.90;;;;;;5012752;28;20053;-71
2022/01/12 02:01:33;;;;;;;86.60;31.88;;;3.20;99.90;;;;;;5012652;28;20107;-71
2022/01/12 02:04:02;;;;;;;77.65;27.63;;;3.20;99.90;;;;;;4995270;28;20483;-69
2022/01/12 02:06:29;;;;;;;85.20;26.00;;;3.20;99.90;;;;;;5012444;28;20050;-71
2022/01/12 02:08:56;;;;;;;75.55;23.42;;;3.20;99.90;;;;;;5012718;28;20065;-70
2022/01/12 02:11:29;;;;;;;75.88;23.63;;;3.20;99.90;;;;;;4995134;28;20062;-71
2022/01/12 02:13:55;;;;;;;87.18;28.40;;;3.20;99.90;;;;;;4995412;28;20089;-74
2022/01/12 02:16:28;;;;;;;84.00;25.10;;;3.20;99.90;;;;;;5012025;28;20492;-74
2022/01/12 02:35:44;;;;;;;106.35;27.70;;;3.80;99.90;;;;;;5012416;28;20408;-73
2022/01/12 02:40:55;;;;;;;89.75;26.60;;;3.30;99.90;;;;;;5012044;28;20137;-79
2022/01/12 02:51:31;;;;;;;82.07;25.42;;;3.30;99.90;;;;;;5012432;28;20054;-78
2022/01/12 02:53:59;;;;;;;83.53;26.58;;;3.30;99.90;;;;;;5016349;28;20041;-79
2022/01/12 02:56:32;;;;;;;89.63;26.15;;;3.30;99.90;;;;;;5016093;28;20573;-79
2022/01/12 02:58:59;;;;;;;129.73;29.98;;;3.30;99.90;;;;;;4998517;28;20085;-80
2022/01/12 03:04:04;;;;;;;93.63;25.58;;;3.30;99.90;;;;;;5015963;28;20096;-79
2022/01/12 03:06:35;;;;;;;86.45;25.58;;;3.30;99.90;;;;;;5015897;28;20049;-79
2022/01/12 03:09:02;;;;;;;85.60;23.58;;;3.30;99.90;;;;;;5015868;28;20053;-79
2022/01/12 03:11:29;;;;;;;127.15;28.75;;;3.30;99.90;;;;;;5015746;28;20042;-78
2022/01/12 03:13:55;;;;;;;108.25;26.95;;;3.30;99.90;;;;;;4998361;28;20046;-79
2022/01/12 03:16:24;;;;;;;72.55;25.17;;;3.30;99.90;;;;;;5015517;28;20136;-77
2022/01/12 03:18:52;;;;;;;88.13;24.23;;;3.30;99.90;;;;;;5015514;28;20038;-76
2022/01/12 03:21:21;;;;;;;83.43;24.95;;;3.40;99.90;;;;;;4997796;28;20049;-78
2022/01/12 03:23:47;;;;;;;95.65;23.85;;;3.50;99.90;;;;;;5015408;28;20050;-78
2022/01/12 03:26:13;;;;;;;94.07;25.08;;;3.60;99.90;;;;;;5015634;28;20073;-76
2022/01/12 03:28:41;;;;;;;87.32;24.83;;;3.30;99.90;;;;;;5015443;28;20076;-79
2022/01/12 03:31:19;;;;;;;87.30;23.77;;;3.30;99.90;;;;;;5022154;28;20079;-72
2022/01/12 03:33:55;;;;;;;85.25;23.92;;;3.30;99.90;;;;;;5027272;28;20054;-73
2022/01/12 03:38:57;;;;;;;89.68;23.13;;;3.30;99.90;;;;;;5015930;28;20050;-72
2022/01/12 03:41:25;;;;;;;102.43;24.10;;;3.30;99.90;;;;;;4997882;28;20084;-71
2022/01/12 03:43:51;;;;;;;100.78;24.15;;;3.30;99.90;;;;;;4997650;28;20409;-71
2022/01/12 03:46:20;;;;;;;103.35;25.05;;;3.30;99.90;;;;;;4997635;28;20049;-71
2022/01/12 03:48:45;;;;;;;84.68;22.08;;;3.20;99.90;;;;;;4997221;28;20053;-71
2022/01/12 03:51:11;;;;;;;121.32;25.38;;;3.20;99.90;;;;;;5015394;28;20037;-72
2022/01/12 03:53:37;;;;;;;124.47;25.75;;;3.30;99.90;;;;;;5014747;28;20714;-70
2022/01/12 03:56:03;;;;;;;105.50;24.20;;;3.20;99.90;;;;;;5015171;28;20054;-70
2022/01/12 03:58:28;;;;;;;112.95;25.65;;;3.20;99.90;;;;;;4996865;28;20088;-71
2022/01/12 04:00:54;;;;;;;136.50;26.05;;;3.60;99.90;;;;;;5015396;28;20077;-73
2022/01/12 04:03:19;;;;;;;100.05;22.70;;;3.20;99.90;;;;;;5014152;28;20045;-72
2022/01/12 04:08:20;;;;;;;80.82;22.70;;;3.20;99.90;;;;;;5014957;28;20408;-71
2022/01/12 04:11:04;;;;;;;85.53;22.80;;;3.10;99.90;;;;;;5014795;28;20061;-70
2022/01/12 04:13:30;;;;;;;84.05;23.13;;;3.20;99.90;;;;;;5014875;28;20046;-71
2022/01/12 04:16:05;;;;;;;89.78;23.48;;;3.10;99.90;;;;;;5014652;28;20499;-71
2022/01/12 04:18:32;;;;;;;74.65;21.90;;;3.10;99.90;;;;;;5014951;28;20085;-73
2022/01/12 04:21:01;;;;;;;68.30;21.88;;;3.10;99.90;;;;;;5014211;28;20037;-71
2022/01/12 04:23:27;;;;;;;87.18;24.05;;;3.10;99.90;;;;;;5014529;28;20503;-72
2022/01/12 04:25:58;;;;;;;82.13;20.88;;;3.10;99.90;;;;;;5014597;28;20061;-72
2022/01/12 04:28:26;;;;;;;198.98;34.95;;;3.10;99.90;;;;;;4996900;28;20126;-71
2022/01/12 04:30:53;;;;;;;140.85;25.08;;;3.10;99.90;;;;;;5014554;28;20081;-72
2022/01/12 04:33:20;;;;;;;201.63;27.45;;;3.10;99.90;;;;;;4996665;28;20414;-72
2022/01/12 04:35:50;;;;;;;203.10;27.23;;;3.10;99.90;;;;;;5014064;28;20056;-72
2022/01/12 04:38:17;;;;;;;164.07;22.05;;;3.00;99.90;;;;;;5014128;28;20081;-72
2022/01/12 04:40:43;;;;;;;167.07;24.33;;;3.00;99.90;;;;;;5014432;28;20077;-72
2022/01/12 04:43:09;;;;;;;170.32;24.42;;;3.00;99.90;;;;;;5013991;28;20096;-72
2022/01/12 04:45:57;;;;;;;215.23;25.30;;;3.00;99.90;;;;;;5014108;28;20054;-71
2022/01/12 04:50:53;;;;;;;238.77;27.92;;;3.80;99.90;;;;;;5013642;28;20057;-73
2022/01/12 04:53:20;;;;;;;232.55;25.05;;;2.90;99.90;;;;;;5014041;28;20042;-70
2022/01/12 04:55:46;;;;;;;242.80;27.35;;;2.90;99.90;;;;;;5013883;28;20120;-73
2022/01/12 04:58:14;;;;;;;135.95;21.55;;;2.90;99.90;;;;;;5014067;28;20038;-72
2022/01/12 05:00:41;;;;;;;134.10;20.27;;;2.90;99.90;;;;;;5013916;28;20120;-70
2022/01/12 05:13:50;;;;;;;169.57;22.35;;;2.90;99.90;;;;;;5013759;28;20041;-72
2022/01/12 05:16:17;;;;;;;162.38;23.30;;;2.90;99.90;;;;;;5012997;28;20478;-72
2022/01/12 05:18:44;;;;;;;190.63;23.88;;;2.80;99.90;;;;;;5013830;28;20133;-72
2022/01/12 05:21:12;;;;;;;159.45;21.30;;;2.80;99.90;;;;;;5013667;28;20046;-73
2022/01/12 05:23:38;;;;;;;222.23;25.83;;;2.80;99.90;;;;;;4980633;28;20104;-73
2022/01/12 05:26:05;;;;;;;112.43;18.25;;;2.90;99.90;;;;;;5013567;28;20050;-71
2022/01/12 05:28:31;;;;;;;127.65;20.33;;;2.80;99.90;;;;;;5013347;28;20559;-71
2022/01/12 05:30:58;;;;;;;106.45;17.27;;;2.70;99.90;;;;;;5013287;28;20052;-72
2022/01/12 05:33:25;;;;;;;95.28;17.48;;;2.70;99.90;;;;;;4996010;28;20050;-72
2022/01/12 05:35:55;;;;;;;216.98;24.75;;;2.70;99.90;;;;;;5013462;28;20081;-72
2022/01/12 05:38:22;;;;;;;119.18;18.65;;;2.60;99.90;;;;;;4995087;28;20048;-71
2022/01/12 05:40:52;;;;;;;161.07;22.27;;;2.60;99.90;;;;;;5012982;28;20049;-72
2022/01/12 05:43:23;;;;;;;125.70;18.45;;;2.60;99.90;;;;;;5012779;28;20469;-72
2022/01/12 05:45:51;;;;;;;117.40;18.67;;;2.50;99.90;;;;;;4995478;28;20529;-71
2022/01/12 05:50:43;;;;;;;121.07;16.63;;;2.40;99.90;;;;;;5012939;28;20069;-73
2022/01/12 05:53:09;;;;;;;68.47;14.93;;;2.40;99.90;;;;;;5012710;28;20052;-72
2022/01/12 05:55:34;;;;;;;77.40;13.43;;;2.40;99.90;;;;;;4995080;28;20481;-71
2022/01/12 05:58:00;;;;;;;71.85;14.00;;;2.30;99.90;;;;;;4995109;28;20052;-72
2022/01/12 06:00:28;;;;;;;102.35;16.98;;;2.30;99.90;;;;;;5012768;28;20049;-74
2022/01/12 06:02:54;;;;;;;52.90;14.07;;;2.30;99.90;;;;;;5012927;28;20050;-71
2022/01/12 06:05:22;;;;;;;44.67;12.65;;;2.20;99.90;;;;;;5012856;28;20085;-70
2022/01/12 06:07:49;;;;;;;61.88;14.65;;;2.20;99.90;;;;;;5012886;28;20042;-73
2022/01/12 06:10:16;;;;;;;46.83;12.50;;;2.20;99.90;;;;;;4978767;28;20062;-72
2022/01/12 06:12:42;;;;;;;49.88;12.50;;;2.40;99.90;;;;;;4994712;28;20045;-72
2022/01/12 06:15:08;;;;;;;27.08;8.43;;;2.10;99.90;;;;;;4994979;28;20132;-73
2022/01/12 06:17:35;;;;;;;32.40;7.25;;;2.10;99.90;;;;;;5012898;28;20048;-73
2022/01/12 06:20:02;;;;;;;36.25;7.60;;;2.10;99.90;;;;;;5012453;28;20042;-71
2022/01/12 06:22:28;;;;;;;24.73;6.85;;;2.10;99.90;;;;;;5012602;28;20053;-71
2022/01/12 06:24:55;;;;;;;27.05;6.97;;;2.00;99.90;;;;;;4994910;28;20156;-73
2022/01/12 06:27:22;;;;;;;39.05;8.15;;;2.00;99.90;;;;;;5013870;28;20042;-74
2022/01/12 06:30:03;;;;;;;30.92;8.65;;;2.00;99.90;;;;;;5016340;28;20096;-72
2022/01/12 06:32:30;;;;;;;52.83;9.20;;;2.00;99.90;;;;;;5024563;28;20045;-72
2022/01/12 06:34:56;;;;;;;27.35;7.28;;;1.90;99.90;;;;;;5025417;28;20092;-78
2022/01/12 06:37:22;;;;;;;27.65;7.13;;;1.90;99.90;;;;;;5006561;28;20145;-76
2022/01/12 06:39:49;;;;;;;39.95;8.50;;;1.80;99.90;;;;;;5022748;28;20123;-76
2022/01/12 06:42:15;;;;;;;42.30;6.97;;;1.80;99.90;;;;;;5025964;28;20514;-78
2022/01/12 06:44:40;;;;;;;27.13;6.80;;;1.70;99.90;;;;;;5022144;28;20132;-80
2022/01/12 06:47:06;;;;;;;37.13;7.10;;;1.70;99.90;;;;;;5004545;28;20054;-78
2022/01/12 06:49:32;;;;;;;36.42;11.00;;;1.60;99.90;;;;;;5026582;28;20488;-79
2022/01/12 06:52:00;;;;;;;45.50;11.25;;;1.60;99.90;;;;;;5025408;28;20037;-79
2022/01/12 06:54:26;;;;;;;49.20;11.18;;;1.60;99.90;;;;;;5025834;28;20104;-76
2022/01/12 06:56:52;;;;;;;49.28;12.27;;;1.60;99.90;;;;;;5005692;28;20068;-79
2022/01/12 06:59:18;;;;;;;43.70;11.95;;;1.60;99.90;;;;;;5006500;28;20053;-77
2022/01/12 07:01:44;;;;;;;53.65;12.95;;;1.60;99.90;;;;;;5026155;28;20439;-77
2022/01/12 07:04:10;;;;;;;57.63;11.32;;;1.50;99.90;;;;;;4991809;28;20503;-79
2022/01/12 07:06:36;;;;;;;60.65;12.05;;;1.50;99.90;;;;;;5024449;28;20080;-72
2022/01/12 07:09:03;;;;;;;47.65;11.63;;;1.50;99.90;;;;;;5006673;28;20049;-71
2022/01/12 07:11:29;;;;;;;105.57;15.82;;;1.50;99.90;;;;;;5025387;28;20041;-72
2022/01/12 07:13:55;;;;;;;74.15;13.13;;;1.50;99.90;;;;;;5023980;28;20041;-75
2022/01/12 07:16:20;;;;;;;76.43;11.65;;;1.60;99.90;;;;;;5024196;28;20484;-72
2022/01/12 07:18:46;;;;;;;85.78;13.43;;;1.60;99.90;;;;;;5024019;28;20045;-70
2022/01/12 07:21:12;;;;;;;100.88;14.65;;;1.60;99.90;;;;;;5008727;28;20111;-72
2022/01/12 07:23:37;;;;;;;74.88;13.15;;;1.60;99.90;;;;;;5007536;28;20050;-71
2022/01/12 07:26:03;;;;;;;90.05;13.82;;;1.60;99.90;;;;;;5009763;28;20061;-72
2022/01/12 07:28:29;;;;;;;80.53;15.20;;;1.70;99.90;;;;;;5013778;28;20033;-73
2022/01/12 07:30:54;;;;;;;68.90;13.57;;;1.70;99.90;;;;;;5028214;28;20057;-71
2022/01/12 07:33:22;;;;;;;124.13;17.35;;;1.70;99.90;;;;;;5027901;28;20543;-72
2022/01/12 07:35:48;;;;;;;121.15;17.58;;;1.80;99.90;;;;;;5049116;28;20030;-75
2022/01/12 07:38:13;;;;;;;100.13;16.20;;;1.80;99.90;;;;;;5043666;28;20048;-78
2022/01/12 07:40:39;;;;;;;91.43;16.73;;;1.90;99.90;;;;;;5036087;28;20042;-77
2022/01/12 07:43:06;;;;;;;103.75;15.73;;;1.90;99.90;;;;;;5017765;28;20074;-80
2022/01/12 07:45:33;;;;;;;91.97;17.35;;;1.90;99.90;;;;;;5035492;28;20059;-71
2022/01/12 07:47:59;;;;;;;56.72;13.75;;;2.40;99.90;;;;;;5024515;28;20364;-76
2022/01/12 07:50:25;;;;;;;89.35;14.70;;;1.90;99.90;;;;;;5053535;28;20047;-75
2022/01/12 07:52:53;;;;;;;77.65;15.68;;;1.90;99.90;;;;;;5053234;28;20465;-75
2022/01/12 07:55:20;;;;;;;69.18;15.10;;;2.00;99.90;;;;;;5035407;28;20050;-71
2022/01/12 07:57:47;;;;;;;85.05;17.15;;;2.00;99.90;;;;;;5032598;28;20398;-73
2022/01/12 08:00:13;;;;;;;58.20;15.25;;;2.00;99.90;;;;;;5033251;28;20056;-72
2022/01/12 08:02:39;;;;;;;70.97;14.75;;;2.00;99.90;;;;;;5032884;28;20103;-76
2022/01/12 08:05:05;;;;;;;59.10;15.38;;;2.10;99.90;;;;;;5032922;28;20325;-76
2022/01/12 08:07:35;;;;;;;55.92;15.50;;;2.10;99.90;;;;;;5031705;28;20041;-74
2022/01/12 08:10:02;;;;;;;58.50;15.98;;;2.10;99.90;;;;;;5032854;28;20140;-73
2022/01/12 08:12:28;;;;;;;57.50;14.90;;;2.20;99.90;;;;;;5032518;28;20045;-72
2022/01/12 08:14:53;;;;;;;59.63;15.40;;;2.20;99.90;;;;;;5014171;28;20054;-77
2022/01/12 08:17:19;;;;;;;61.80;14.68;;;2.20;99.90;;;;;;5014622;28;20856;-75
2022/01/12 08:19:44;;;;;;;59.28;17.20;;;2.20;99.90;;;;;;5015183;28;20053;-73
2022/01/12 08:22:10;;;;;;;69.57;16.50;;;2.20;99.90;;;;;;4999361;28;20045;-70
2022/01/12 08:24:36;;;;;;;90.38;18.73;;;2.30;99.90;;;;;;5032012;28;20045;-67
2022/01/12 08:27:02;;;;;;;58.75;16.85;;;2.30;99.90;;;;;;5014752;28;20376;-76
2022/01/12 08:29:29;;;;;;;97.00;16.77;;;2.30;99.90;;;;;;4997058;28;20064;-70
2022/01/12 08:31:55;;;;;;;80.97;16.60;;;2.30;99.90;;;;;;5014619;28;20041;-79
2022/01/12 08:34:21;;;;;;;88.20;16.80;;;2.30;99.90;;;;;;5014394;28;20045;-71
2022/01/12 08:36:47;;;;;;;80.68;17.77;;;2.40;99.90;;;;;;5013848;28;20069;-76
2022/01/12 08:39:13;;;;;;;119.38;19.67;;;2.40;99.90;;;;;;5031718;28;20037;-69
2022/01/12 08:41:39;;;;;;;91.82;15.68;;;2.50;99.90;;;;;;5031497;28;20342;-70
2022/01/12 08:44:06;;;;;;;79.07;15.15;;;2.50;99.90;;;;;;5031372;28;20115;-68
2022/01/12 08:46:32;;;;;;;84.03;14.73;;;2.50;99.90;;;;;;5030756;28;20387;-69
2022/01/12 08:48:58;;;;;;;81.03;13.07;;;2.60;99.90;;;;;;5031649;28;20124;-71
2022/01/12 08:51:24;;;;;;;65.68;11.85;;;2.60;99.90;;;;;;5031132;28;20073;-69
2022/01/12 08:53:49;;;;;;;59.05;12.18;;;2.60;99.90;;;;;;5031942;28;20049;-69
2022/01/12 08:56:15;;;;;;;54.90;11.60;;;2.60;99.90;;;;;;5031405;28;20414;-70
2022/01/12 08:58:41;;;;;;;59.15;12.02;;;2.60;99.90;;;;;;5032019;28;20038;-70
2022/01/12 09:01:09;;;;;;;73.90;12.27;;;2.60;99.90;;;;;;5031338;28;20050;-70
2022/01/12 09:03:35;;;;;;;35.90;9.98;;;2.70;99.90;;;;;;5013789;28;20052;-70
2022/01/12 09:06:03;;;;;;;34.55;9.63;;;2.70;99.90;;;;;;5015150;28;20128;-69
2022/01/12 09:08:29;;;;;;;62.38;9.00;;;2.70;99.90;;;;;;5032526;28;20048;-70
2022/01/12 09:10:55;;;;;;;75.05;11.50;;;2.70;99.90;;;;;;5017262;28;20568;-73
2022/01/12 09:13:20;;;;;;;63.95;10.65;;;2.70;99.90;;;;;;5046765;28;20045;-72
2022/01/12 09:15:46;;;;;;;51.15;9.55;;;2.70;99.90;;;;;;5049251;28;20098;-73
2022/01/12 09:18:12;;;;;;;46.05;9.55;;;2.70;99.90;;;;;;5050643;28;20053;-73
2022/01/12 09:20:38;;;;;;;35.45;9.43;;;2.70;99.90;;;;;;5050623;28;20559;-74
2022/01/12 09:23:04;;;;;;;38.20;7.70;;;2.80;99.90;;;;;;5050621;28;20051;-75
2022/01/12 09:25:33;;;;;;;53.97;9.63;;;2.80;99.90;;;;;;5049632;28;20179;-75
2022/01/12 09:28:02;;;;;;;37.10;8.48;;;2.90;99.90;;;;;;5040742;28;20533;-74
2022/01/12 09:30:28;;;;;;;42.63;9.13;;;2.90;99.90;;;;;;5008502;28;20427;-74
2022/01/12 09:35:43;;;;;;;39.55;7.85;;;2.90;99.90;;;;;;5010720;23;20411;-77
2022/01/12 09:38:09;;;;;;;29.27;7.13;;;3.30;99.90;;;;;;5003579;28;20093;-75
2022/01/12 09:40:36;;;;;;;61.35;9.68;;;2.90;99.90;;;;;;4987979;28;20104;-73
2022/01/12 09:43:05;;;;;;;36.38;7.72;;;2.90;99.90;;;;;;5007355;28;20117;-71
2022/01/12 09:45:32;;;;;;;36.08;8.13;;;3.00;99.90;;;;;;5008093;28;20087;-71
2022/01/12 09:47:58;;;;;;;42.72;8.10;;;3.00;99.90;;;;;;4995132;28;20053;-71
2022/01/12 09:50:25;;;;;;;34.45;7.75;;;3.00;99.90;;;;;;4991051;28;20056;-70
2022/01/12 09:52:51;;;;;;;38.15;8.02;;;3.10;99.90;;;;;;4997866;28;20129;-74
2022/01/12 09:55:18;;;;;;;57.05;7.30;;;3.10;99.90;;;;;;4987816;28;20141;-72
2022/01/12 09:57:44;;;;;;;42.20;7.00;;;3.10;99.90;;;;;;4990110;28;20062;-73
2022/01/12 10:00:11;;;;;;;44.80;7.75;;;3.20;99.90;;;;;;4970271;28;20119;-71
2022/01/12 10:02:37;;;;;;;37.97;6.90;;;3.30;99.90;;;;;;4969733;28;20069;-71
2022/01/12 10:05:09;;;;;;;39.65;6.85;;;4.40;99.90;;;;;;4972748;28;20050;-71
2022/01/12 10:07:36;;;;;;;38.50;7.28;;;3.30;99.90;;;;;;4982953;28;20101;-74
2022/01/12 10:10:09;;;;;;;120.15;9.40;;;3.40;99.90;;;;;;4971902;28;20092;-73
2022/01/12 10:12:35;;;;;;;47.40;8.57;;;3.40;99.90;;;;;;4974212;28;20082;-72
2022/01/12 10:15:10;;;;;;;20.83;5.03;;;3.50;99.90;;;;;;4989723;28;20600;-77
2022/01/12 10:17:43;;;;;;;25.08;6.75;;;3.60;99.90;;;;;;4972732;28;20484;-80
2022/01/12 10:20:10;;;;;;;35.40;6.07;;;3.70;99.90;;;;;;4999387;28;20515;-75
2022/01/12 10:22:37;;;;;;;27.80;5.75;;;3.70;99.90;;;;;;5007480;28;20376;-79
2022/01/12 10:25:15;;;;;;;33.95;6.43;;;3.70;99.90;;;;;;4989376;28;20057;-73
2022/01/12 10:27:41;;;;;;;46.10;7.53;;;4.30;99.90;;;;;;4989697;28;20092;-78
2022/01/12 10:30:07;;;;;;;44.38;7.53;;;3.90;99.90;;;;;;4988682;28;20074;-75
2022/01/12 10:32:33;;;;;;;36.63;6.78;;;3.90;99.90;;;;;;4981636;28;20062;-77
2022/01/12 10:35:00;;;;;;;35.65;7.15;;;4.00;99.90;;;;;;5002950;28;20095;-82
2022/01/12 10:37:26;;;;;;;54.22;8.60;;;4.00;99.90;;;;;;5006684;28;20124;-79
2022/01/12 10:39:54;;;;;;;49.33;6.93;;;4.10;99.90;;;;;;4986763;28;20065;-82
2022/01/12 10:42:21;;;;;;;33.92;7.22;;;4.90;99.90;;;;;;4989661;28;20057;-77
2022/01/12 10:44:50;;;;;;;27.58;6.38;;;4.40;99.90;;;;;;4972780;28;20065;-77
2022/01/12 10:47:19;;;;;;;37.65;9.07;;;4.20;99.90;;;;;;4991864;28;20058;-80
2022/01/12 10:49:53;;;;;;;42.92;6.85;;;4.20;99.90;;;;;;4973804;28;20058;-80
2022/01/12 10:52:20;;;;;;;62.47;8.23;;;4.60;99.90;;;;;;5000977;28;20046;-82
2022/01/12 10:54:46;;;;;;;34.90;7.78;;;4.30;99.90;;;;;;4989582;28;20091;-81
2022/01/12 10:57:22;;;;;;;59.78;8.80;;;4.80;99.90;;;;;;4987164;28;20432;-78
2022/01/12 11:00:10;;;;;;;30.20;7.43;;;4.40;99.90;;;;;;4991233;28;20050;-78
2022/01/12 11:02:39;;;;;;;54.97;9.43;;;4.40;99.90;;;;;;4971916;28;20081;-76
2022/01/12 11:05:07;;;;;;;35.72;7.28;;;4.50;99.90;;;;;;4989351;28;20139;-76
2022/01/12 11:07:33;;;;;;;35.50;7.15;;;4.50;99.90;;;;;;5001224;28;20053;-77
2022/01/12 11:10:02;;;;;;;43.35;8.10;;;4.60;99.90;;;;;;4995902;28;20038;-75
2022/01/12 11:12:28;;;;;;;34.78;8.48;;;4.60;99.90;;;;;;5006762;28;20054;-78
2022/01/12 11:14:54;;;;;;;37.85;7.57;;;4.60;99.90;;;;;;5003402;28;20046;-76
2022/01/12 11:17:20;;;;;;;41.55;8.52;;;4.70;99.90;;;;;;5001354;28;20046;-76
2022/01/12 11:20:16;;;;;;;37.10;7.88;;;4.70;99.90;;;;;;4979771;28;20408;-75
2022/01/12 11:23:00;;;;;;;36.55;7.55;;;4.70;99.90;;;;;;4990348;28;20416;-77
2022/01/12 11:25:29;;;;;;;28.60;6.88;;;4.80;99.90;;;;;;4995443;28;20515;-78
2022/01/12 11:28:14;;;;;;;55.35;7.88;;;4.80;99.90;;;;;;4991903;28;20439;-78
2022/01/12 11:30:43;;;;;;;27.75;7.28;;;4.80;99.90;;;;;;5002051;28;20125;-78
2022/01/12 11:33:10;;;;;;;30.85;9.10;;;4.80;99.90;;;;;;5008642;28;20117;-78
2022/01/12 11:35:41;;;;;;;38.60;7.97;;;4.80;99.90;;;;;;5011851;28;20065;-79
2022/01/12 11:38:18;;;;;;;30.52;7.10;;;4.80;99.90;;;;;;5012401;28;20077;-73
2022/01/12 11:40:44;;;;;;;38.53;6.95;;;4.90;99.90;;;;;;5008470;28;20038;-78
2022/01/12 11:43:18;;;;;;;30.55;7.80;;;4.90;99.90;;;;;;5012072;28;20046;-77
2022/01/12 11:45:44;;;;;;;27.67;6.57;;;4.90;99.90;;;;;;5011657;28;20050;-78
2022/01/12 11:48:10;;;;;;;31.13;7.88;;;4.90;99.90;;;;;;5000517;28;20050;-79
2022/01/12 11:50:35;;;;;;;24.17;6.55;;;4.90;99.90;;;;;;4989412;28;20132;-75
2022/01/12 11:53:01;;;;;;;30.23;7.43;;;4.90;99.90;;;;;;5011897;28;20432;-78
2022/01/12 11:55:34;;;;;;;21.73;7.13;;;4.80;99.90;;;;;;5011123;28;20062;-78
2022/01/12 11:58:03;;;;;;;33.03;7.22;;;4.90;99.90;;;;;;4979914;28;20407;-76
2022/01/12 12:00:30;;;;;;;25.30;6.90;;;4.90;99.90;;;;;;4985609;28;20054;-73
2022/01/12 12:02:57;;;;;;;21.60;6.78;;;5.20;99.90;;;;;;4976187;28;20054;-75
2022/01/12 12:05:28;;;;;;;28.55;7.15;;;4.90;99.90;;;;;;4997086;28;20041;-75
2022/01/12 12:08:03;;;;;;;31.02;7.85;;;4.90;99.90;;;;;;4988770;28;20145;-74
2022/01/12 12:10:41;;;;;;;28.67;7.43;;;4.90;99.90;;;;;;4997570;28;20112;-74
2022/01/12 12:13:11;;;;;;;22.55;6.70;;;4.90;99.90;;;;;;5002126;28;20046;-73
2022/01/12 12:15:36;;;;;;;23.52;6.45;;;4.90;99.90;;;;;;4984912;28;20069;-74
2022/01/12 12:18:04;;;;;;;24.25;6.28;;;5.70;99.90;;;;;;4995343;28;20193;-74
2022/01/12 12:20:31;;;;;;;24.25;6.55;;;5.00;99.90;;;;;;5002610;28;20049;-72
2022/01/12 12:22:57;;;;;;;23.92;7.50;;;5.00;99.90;;;;;;5002100;28;20050;-69
2022/01/12 12:25:29;;;;;;;20.42;6.20;;;5.10;99.90;;;;;;5000793;28;20109;-67
2022/01/12 12:28:00;;;;;;;21.03;5.73;;;5.20;99.90;;;;;;4994187;28;20054;-69
2022/01/12 12:30:28;;;;;;;27.02;7.78;;;5.20;99.90;;;;;;4993153;28;20058;-67
2022/01/12 12:32:56;;;;;;;20.35;6.30;;;5.20;99.90;;;;;;4974714;28;20109;-66
2022/01/12 12:35:26;;;;;;;24.48;7.50;;;5.20;99.90;;;;;;5003989;28;20504;-69
2022/01/12 12:37:55;;;;;;;23.95;7.60;;;5.20;99.90;;;;;;5008969;28;20054;-69
2022/01/12 12:40:30;;;;;;;31.33;7.35;;;5.20;99.90;;;;;;4995967;28;20081;-67
2022/01/12 12:43:17;;;;;;;26.33;6.55;;;5.30;99.90;;;;;;4991127;28;20125;-67
2022/01/12 12:45:54;;;;;;;25.63;7.35;;;5.30;99.90;;;;;;4995278;28;20415;-67
2022/01/12 12:48:23;;;;;;;22.67;6.25;;;5.30;99.90;;;;;;4974451;28;20133;-68
2022/01/12 12:50:58;;;;;;;24.00;6.88;;;5.30;99.90;;;;;;5003598;28;20046;-67
2022/01/12 12:53:38;;;;;;;20.35;6.63;;;5.40;99.90;;;;;;4970742;28;20038;-71
2022/01/12 12:56:07;;;;;;;20.63;7.63;;;5.40;99.90;;;;;;4989253;28;20741;-71
2022/01/12 12:58:35;;;;;;;23.25;7.30;;;5.40;99.90;;;;;;4972780;28;20089;-72
2022/01/12 13:01:21;;;;;;;24.17;6.97;;;5.40;99.90;;;;;;4994637;28;20078;-70
2022/01/12 13:03:52;;;;;;;21.52;7.15;;;5.40;99.90;;;;;;5003778;28;20180;-70
2022/01/12 13:06:28;;;;;;;21.77;6.60;;;5.30;99.90;;;;;;5008439;28;20050;-70
2022/01/12 13:08:56;;;;;;;25.67;7.53;;;5.30;99.90;;;;;;4971284;28;20086;-70
2022/01/12 13:11:33;;;;;;;20.02;6.85;;;5.30;99.90;;;;;;5006770;28;20046;-71
2022/01/12 13:14:02;;;;;;;20.80;6.85;;;5.30;99.90;;;;;;4990134;28;20400;-71
2022/01/12 13:16:28;;;;;;;21.30;8.00;;;5.30;99.90;;;;;;5002137;28;20058;-72
2022/01/12 13:19:19;;;;;;;24.02;7.25;;;5.60;99.90;;;;;;4999810;28;20061;-71
2022/01/12 13:21:45;;;;;;;25.48;6.65;;;5.30;99.90;;;;;;5005995;28;20168;-72
2022/01/12 13:24:11;;;;;;;23.98;6.53;;;5.80;99.90;;;;;;5006916;28;20124;-73
2022/01/12 13:26:36;;;;;;;29.00;6.60;;;5.30;99.90;;;;;;5006584;28;20030;-71
2022/01/12 13:29:08;;;;;;;29.58;8.55;;;5.30;99.90;;;;;;4987972;28;20505;-74
2022/01/12 13:31:34;;;;;;;18.20;6.65;;;5.30;99.90;;;;;;4991005;28;20431;-69
2022/01/12 13:34:01;;;;;;;24.33;8.30;;;5.40;99.90;;;;;;5001439;28;20050;-73
2022/01/12 13:36:32;;;;;;;22.35;6.45;;;5.40;99.90;;;;;;4995394;28;20054;-75
2022/01/12 13:39:07;;;;;;;22.50;7.60;;;5.40;99.90;;;;;;4995061;28;20097;-71
2022/01/12 13:41:39;;;;;;;21.33;7.45;;;5.40;99.90;;;;;;5004118;28;20128;-75
2022/01/12 13:44:24;;;;;;;20.05;6.25;;;5.40;99.90;;;;;;4962079;28;20820;-70
2022/01/12 13:47:10;;;;;;;22.77;8.40;;;5.40;99.90;;;;;;4982354;28;20050;-74
2022/01/12 13:49:36;;;;;;;26.63;6.78;;;5.30;99.90;;;;;;4999249;28;20072;-71
2022/01/12 13:52:07;;;;;;;21.85;6.95;;;5.30;99.90;;;;;;4999672;28;20069;-71
2022/01/12 13:54:38;;;;;;;21.25;7.20;;;5.30;99.90;;;;;;4994549;28;20085;-71
2022/01/12 13:57:05;;;;;;;22.50;8.20;;;5.30;99.90;;;;;;4991104;28;20054;-72
2022/01/12 13:59:32;;;;;;;24.58;7.90;;;5.30;99.90;;;;;;4993569;28;20550;-72
2022/01/12 14:01:59;;;;;;;26.73;8.05;;;5.80;99.90;;;;;;5000058;28;20085;-73
2022/01/12 14:04:32;;;;;;;28.05;7.97;;;5.70;99.90;;;;;;4984356;28;20046;-66
2022/01/12 14:07:01;;;;;;;24.17;6.88;;;5.30;99.90;;;;;;4978607;28;20411;-71
2022/01/12 14:09:31;;;;;;;26.15;7.03;;;5.30;99.90;;;;;;4971311;28;20050;-74